Hauptseite
METAR-TAF:

METAR-TAF

Flughäfen :

Danbury Municipal Airport

Danbury, Connecticut, Vereinigte Staaten

Breite: 41-22-18N, Länge: 073-29-04W, Höhe: 139 m

Beobachtung

Neuester Wetterbericht von vor 1 Stunde und 0 Minuten, um 22:53 UTC
Wind 8 kt aus Südwest, Böen bis zu 16 kt
Temperatur 19°C
Luftfeuchtigkeit 43%
Luftdruck 1012 hPa
Sichtweite: 16.1 km
Leicht bewölkt in der Höhe von 7500 ft
Durchbrochene Bewölkung in der Höhe von 10000 ft
Geschlossene Wolkendecke in der Höhe von 12000 ft

METAR: KDXR 142253Z 23008G16KT 10SM FEW075 BKN100 OVC120 19/06 A2989 RMK AO2 SLP119 T01940061

Zeit: 19:53 (23:53 UTC)


TAF: fehlend

Wetterbeobachtungen und Prognosen von mehr als 4000 Flughäfen (METAR und TAF Bericht).

Die verfügbaren Stationen werden durch gelbe und rote Markierungen auf der Karte dargestellt.

Führen Sie die Maus auf sie, um den Namen der Station zu sehen.

Darauf klicken, um die Beobachtung von Wetterbeobachtungen und Prognosen zu sehen.

Um die Karte zu ändern : klicken Sie auf den grünen Tasten mit einem schwarzen Kreuz Zum Vergrößern, auf den grünen Button mit einem Gedankenstrich zu verkleinern, oder auf die grünen Pfeile für benachbarte Karten.


METAR-TAF: